CSS819 ZSHC-ZGGG
Flight info
| Callsign | CSS819 |
|---|---|
| Flight time | 1h 41m |
| Altitude | 34100 |
| Route | ELNEX8D ELNEX A599 SHR V171 PLT W19 OLPAB OLPAB8 |
| Aircraft | B763/H-SDE3FGHIM3RWXY/LB1 |
Departure
| Time | 2026-04-27 06:15 |
|---|---|
| Airport | Hangzhou Xiaoshan International Airport (ZSHC) |
Arrival
| Time | 2026-04-27 07:56 |
|---|---|
| Airport | Guangzhou Baiyun International Airport (ZGGG) |
| Time | Latitude | Longitude | Altitude | Speed | Heading |
|---|---|---|---|---|---|
| 2026-04-27 05:39 | 30.24658 | 120.43958 | 31 ft | 0 kts | 153° |
| 2026-04-27 05:59 | 30.24670 | 120.43951 | 31 ft | 2 kts | 153° |
| 2026-04-27 05:59 | 30.24684 | 120.43943 | 32 ft | 2 kts | 153° |
| 2026-04-27 05:59 | 30.24697 | 120.43935 | 32 ft | 2 kts | 153° |
| 2026-04-27 06:00 | 30.24726 | 120.43935 | 32 ft | 2 kts | 211° |
| 2026-04-27 06:00 | 30.24737 | 120.43947 | 31 ft | 1 kts | 237° |
| 2026-04-27 06:00 | 30.24740 | 120.43953 | 31 ft | 1 kts | 244° |
| 2026-04-27 06:01 | 30.24741 | 120.43955 | 31 ft | 0 kts | 243° |
| 2026-04-27 06:08 | 30.24725 | 120.43919 | 31 ft | 11 kts | 242° |
| 2026-04-27 06:08 | 30.24671 | 120.43800 | 31 ft | 19 kts | 242° |
| 2026-04-27 06:08 | 30.24605 | 120.43649 | 31 ft | 22 kts | 243° |
| 2026-04-27 06:08 | 30.24537 | 120.43501 | 31 ft | 19 kts | 232° |
| 2026-04-27 06:09 | 30.24432 | 120.43510 | 31 ft | 17 kts | 153° |
| 2026-04-27 06:09 | 30.24324 | 120.43588 | 31 ft | 13 kts | 109° |
| 2026-04-27 06:09 | 30.24299 | 120.43684 | 31 ft | 13 kts | 149° |
| 2026-04-27 06:09 | 30.24186 | 120.43751 | 31 ft | 23 kts | 153° |
| 2026-04-27 06:10 | 30.24027 | 120.43844 | 31 ft | 27 kts | 153° |
| 2026-04-27 06:10 | 30.23852 | 120.43948 | 31 ft | 29 kts | 152° |
| 2026-04-27 06:10 | 30.23674 | 120.44051 | 31 ft | 27 kts | 153° |
| 2026-04-27 06:10 | 30.23598 | 120.44149 | 31 ft | 13 kts | 126° |
| 2026-04-27 06:11 | 30.23503 | 120.44244 | 31 ft | 20 kts | 93° |
| 2026-04-27 06:11 | 30.23567 | 120.44399 | 31 ft | 23 kts | 63° |
| 2026-04-27 06:11 | 30.23649 | 120.44586 | 31 ft | 28 kts | 62° |
| 2026-04-27 06:11 | 30.23744 | 120.44804 | 31 ft | 31 kts | 63° |
| 2026-04-27 06:12 | 30.23821 | 120.44994 | 31 ft | 18 kts | 93° |
| 2026-04-27 06:12 | 30.23716 | 120.45071 | 31 ft | 19 kts | 163° |
| 2026-04-27 06:12 | 30.23658 | 120.45035 | 31 ft | 0 kts | 243° |
| 2026-04-27 06:12 | 30.23656 | 120.45032 | 31 ft | 0 kts | 243° |
| 2026-04-27 06:14 | 30.23648 | 120.45014 | 31 ft | 9 kts | 243° |
| 2026-04-27 06:14 | 30.23512 | 120.44705 | 31 ft | 83 kts | 243° |
| 2026-04-27 06:15 | 30.23131 | 120.43847 | 43 ft | 155 kts | 243° |
| 2026-04-27 06:15 | 30.22623 | 120.42653 | 785 ft | 167 kts | 243° |
| 2026-04-27 06:15 | 30.22134 | 120.41615 | 1883 ft | 153 kts | 232° |
| 2026-04-27 06:15 | 30.21363 | 120.40681 | 2530 ft | 169 kts | 226° |
| 2026-04-27 06:16 | 30.20527 | 120.39675 | 3268 ft | 181 kts | 227° |
| 2026-04-27 06:16 | 30.19647 | 120.38586 | 4010 ft | 195 kts | 228° |
| 2026-04-27 06:16 | 30.18706 | 120.37405 | 4767 ft | 210 kts | 228° |
| 2026-04-27 06:16 | 30.17674 | 120.36098 | 5470 ft | 234 kts | 228° |
| 2026-04-27 06:17 | 30.16553 | 120.34669 | 6376 ft | 252 kts | 229° |
| 2026-04-27 06:17 | 30.15338 | 120.33118 | 7423 ft | 270 kts | 229° |
| 2026-04-27 06:17 | 30.14061 | 120.31484 | 8560 ft | 284 kts | 229° |
| 2026-04-27 06:17 | 30.12764 | 120.29825 | 9929 ft | 287 kts | 230° |
| 2026-04-27 06:18 | 30.11446 | 120.28136 | 11247 ft | 290 kts | 230° |
| 2026-04-27 06:18 | 30.10102 | 120.26413 | 12506 ft | 294 kts | 230° |
| 2026-04-27 06:18 | 30.08753 | 120.24683 | 13776 ft | 295 kts | 230° |
| 2026-04-27 06:18 | 30.07533 | 120.22773 | 14683 ft | 304 kts | 243° |
| 2026-04-27 06:19 | 30.06897 | 120.20955 | 14683 ft | 311 kts | 255° |
| 2026-04-27 06:20 | 30.06625 | 120.19709 | 14689 ft | 303 kts | 257° |
| 2026-04-27 06:20 | 30.06121 | 120.17413 | 14680 ft | 291 kts | 256° |
| 2026-04-27 06:20 | 30.05612 | 120.15151 | 14690 ft | 289 kts | 256° |
| 2026-04-27 06:21 | 30.05107 | 120.12911 | 14685 ft | 290 kts | 256° |
| 2026-04-27 06:21 | 30.05095 | 120.12861 | 14684 ft | 290 kts | 256° |
| 2026-04-27 06:23 | 30.04910 | 120.12045 | 14683 ft | 291 kts | 256° |
| 2026-04-27 06:23 | 30.04494 | 120.10191 | 14698 ft | 291 kts | 256° |
| 2026-04-27 06:23 | 30.04412 | 120.09825 | 14698 ft | 291 kts | 256° |
| 2026-04-27 06:24 | 30.04186 | 120.08839 | 14689 ft | 292 kts | 256° |
| 2026-04-27 06:24 | 30.03673 | 120.06595 | 14674 ft | 292 kts | 256° |
| 2026-04-27 06:24 | 30.03194 | 120.04497 | 14675 ft | 291 kts | 256° |
| 2026-04-27 06:25 | 30.02775 | 120.02666 | 14679 ft | 291 kts | 256° |
| 2026-04-27 06:25 | 30.02231 | 120.00400 | 14683 ft | 299 kts | 251° |
| 2026-04-27 06:25 | 30.01245 | 119.98114 | 14736 ft | 343 kts | 242° |
| 2026-04-27 06:26 | 29.99993 | 119.95574 | 14689 ft | 375 kts | 242° |
| 2026-04-27 06:26 | 29.98704 | 119.92972 | 14672 ft | 373 kts | 242° |
| 2026-04-27 06:26 | 29.97427 | 119.90393 | 14683 ft | 370 kts | 242° |
| 2026-04-27 06:26 | 29.96139 | 119.87798 | 14689 ft | 373 kts | 242° |
| 2026-04-27 06:27 | 29.94855 | 119.85214 | 14688 ft | 374 kts | 242° |
| 2026-04-27 06:27 | 29.93556 | 119.82601 | 14695 ft | 372 kts | 242° |
| 2026-04-27 06:27 | 29.92270 | 119.80018 | 14701 ft | 372 kts | 242° |
| 2026-04-27 06:27 | 29.90997 | 119.77462 | 14706 ft | 372 kts | 242° |
| 2026-04-27 06:28 | 29.89710 | 119.74877 | 14711 ft | 372 kts | 242° |
| 2026-04-27 06:28 | 29.88417 | 119.72287 | 14719 ft | 371 kts | 242° |
| 2026-04-27 06:28 | 29.87127 | 119.69701 | 14725 ft | 371 kts | 242° |
| 2026-04-27 06:28 | 29.85733 | 119.67202 | 14739 ft | 376 kts | 233° |
| 2026-04-27 06:29 | 29.83788 | 119.65150 | 15517 ft | 387 kts | 218° |
| 2026-04-27 06:29 | 29.81619 | 119.63476 | 17055 ft | 382 kts | 218° |
| 2026-04-27 06:29 | 29.79416 | 119.61724 | 18211 ft | 387 kts | 218° |
| 2026-04-27 06:29 | 29.77173 | 119.59962 | 19126 ft | 396 kts | 218° |
| 2026-04-27 06:30 | 29.74885 | 119.58167 | 20039 ft | 405 kts | 218° |
| 2026-04-27 06:30 | 29.72529 | 119.56323 | 20957 ft | 411 kts | 218° |
| 2026-04-27 06:30 | 29.70173 | 119.54482 | 21783 ft | 419 kts | 218° |
| 2026-04-27 06:30 | 29.67731 | 119.52576 | 22606 ft | 425 kts | 218° |
| 2026-04-27 06:31 | 29.65274 | 119.50660 | 23432 ft | 431 kts | 219° |
| 2026-04-27 06:31 | 29.62941 | 119.48553 | 24158 ft | 433 kts | 227° |
| 2026-04-27 06:31 | 29.60895 | 119.46040 | 24987 ft | 434 kts | 232° |
| 2026-04-27 06:31 | 29.58840 | 119.43456 | 25765 ft | 439 kts | 231° |
| 2026-04-27 06:32 | 29.56803 | 119.40879 | 26535 ft | 442 kts | 232° |
| 2026-04-27 06:32 | 29.54725 | 119.38249 | 27257 ft | 446 kts | 232° |
| 2026-04-27 06:32 | 29.52666 | 119.35637 | 28231 ft | 443 kts | 232° |
| 2026-04-27 06:32 | 29.50598 | 119.33012 | 29157 ft | 440 kts | 232° |
| 2026-04-27 06:33 | 29.48542 | 119.30398 | 30121 ft | 437 kts | 232° |
| 2026-04-27 06:33 | 29.46531 | 119.27842 | 30998 ft | 435 kts | 232° |
| 2026-04-27 06:33 | 29.44523 | 119.25291 | 31934 ft | 431 kts | 232° |
| 2026-04-27 06:33 | 29.42517 | 119.22743 | 32754 ft | 429 kts | 232° |
| 2026-04-27 06:34 | 29.40536 | 119.20229 | 33591 ft | 427 kts | 232° |
| 2026-04-27 06:34 | 29.38559 | 119.17720 | 34067 ft | 425 kts | 231° |
| 2026-04-27 06:34 | 29.34616 | 119.12728 | 34026 ft | 418 kts | 232° |
| 2026-04-27 06:35 | 29.30720 | 119.07803 | 34019 ft | 421 kts | 232° |
| 2026-04-27 06:35 | 29.26766 | 119.02814 | 34024 ft | 422 kts | 231° |
| 2026-04-27 06:36 | 29.22848 | 118.97879 | 34025 ft | 420 kts | 231° |
| 2026-04-27 06:36 | 29.18927 | 118.92950 | 34029 ft | 420 kts | 231° |
| 2026-04-27 06:37 | 29.14980 | 118.87995 | 34034 ft | 422 kts | 231° |
| 2026-04-27 06:37 | 29.11014 | 118.83020 | 34033 ft | 423 kts | 231° |
| 2026-04-27 06:38 | 29.07059 | 118.78067 | 34028 ft | 425 kts | 231° |
| 2026-04-27 06:38 | 29.03088 | 118.73099 | 34009 ft | 423 kts | 231° |
| 2026-04-27 06:39 | 28.99132 | 118.68158 | 33995 ft | 422 kts | 231° |
| 2026-04-27 06:39 | 28.95166 | 118.63202 | 34005 ft | 423 kts | 231° |
| 2026-04-27 06:40 | 28.91187 | 118.58247 | 34003 ft | 423 kts | 231° |
| 2026-04-27 06:40 | 28.87221 | 118.53310 | 34003 ft | 424 kts | 231° |
| 2026-04-27 06:41 | 28.83229 | 118.48348 | 34002 ft | 424 kts | 231° |
| 2026-04-27 06:41 | 28.79245 | 118.43400 | 34001 ft | 425 kts | 231° |
| 2026-04-27 06:42 | 28.75256 | 118.38453 | 33998 ft | 425 kts | 231° |
| 2026-04-27 06:42 | 28.71239 | 118.33477 | 34009 ft | 426 kts | 231° |
| 2026-04-27 06:43 | 28.67230 | 118.28516 | 34007 ft | 425 kts | 231° |
| 2026-04-27 06:43 | 28.63235 | 118.23580 | 34013 ft | 425 kts | 231° |
| 2026-04-27 06:44 | 28.59211 | 118.18612 | 34031 ft | 428 kts | 231° |
| 2026-04-27 06:44 | 28.55195 | 118.13662 | 34042 ft | 428 kts | 231° |
| 2026-04-27 06:45 | 28.51156 | 118.08689 | 34031 ft | 428 kts | 231° |
| 2026-04-27 06:45 | 28.47110 | 118.03714 | 34021 ft | 428 kts | 231° |
| 2026-04-27 06:46 | 28.43650 | 117.98358 | 34022 ft | 421 kts | 246° |
| 2026-04-27 06:46 | 28.42043 | 117.92050 | 34015 ft | 417 kts | 265° |
| 2026-04-27 06:47 | 28.41847 | 117.85484 | 34005 ft | 418 kts | 270° |
| 2026-04-27 06:47 | 28.41789 | 117.78892 | 34013 ft | 417 kts | 270° |
| 2026-04-27 06:48 | 28.41775 | 117.72325 | 34012 ft | 416 kts | 270° |
| 2026-04-27 06:48 | 28.41778 | 117.65780 | 34000 ft | 416 kts | 270° |
| 2026-04-27 06:49 | 28.41786 | 117.59239 | 33995 ft | 416 kts | 271° |
| 2026-04-27 06:49 | 28.41794 | 117.52685 | 33991 ft | 417 kts | 271° |
| 2026-04-27 06:50 | 28.41799 | 117.46110 | 33989 ft | 418 kts | 271° |
| 2026-04-27 06:50 | 28.41802 | 117.39542 | 33979 ft | 417 kts | 271° |
| 2026-04-27 06:51 | 28.41802 | 117.32919 | 33985 ft | 418 kts | 270° |
| 2026-04-27 06:51 | 28.41799 | 117.26333 | 33979 ft | 418 kts | 270° |
| 2026-04-27 06:52 | 28.41793 | 117.19791 | 33972 ft | 417 kts | 270° |
| 2026-04-27 06:52 | 28.41783 | 117.13225 | 33970 ft | 417 kts | 271° |
| 2026-04-27 06:53 | 28.41771 | 117.06647 | 33968 ft | 417 kts | 270° |
| 2026-04-27 06:53 | 28.41756 | 117.00092 | 33965 ft | 416 kts | 270° |
| 2026-04-27 06:54 | 28.41737 | 116.93542 | 33960 ft | 416 kts | 270° |
| 2026-04-27 06:54 | 28.41715 | 116.87001 | 33955 ft | 414 kts | 270° |
| 2026-04-27 06:55 | 28.41555 | 116.80492 | 33955 ft | 417 kts | 264° |
| 2026-04-27 06:55 | 28.39754 | 116.74228 | 33960 ft | 423 kts | 244° |
| 2026-04-27 06:56 | 28.36097 | 116.68923 | 33962 ft | 431 kts | 230° |
| 2026-04-27 06:56 | 28.31912 | 116.64051 | 33962 ft | 432 kts | 229° |
| 2026-04-27 06:57 | 28.27709 | 116.59242 | 33958 ft | 432 kts | 229° |
| 2026-04-27 06:57 | 28.23460 | 116.54419 | 33961 ft | 431 kts | 229° |
| 2026-04-27 06:58 | 28.17070 | 116.47196 | 33960 ft | 433 kts | 229° |
| 2026-04-27 06:59 | 28.12817 | 116.42402 | 33957 ft | 433 kts | 229° |
| 2026-04-27 06:59 | 28.08551 | 116.37598 | 33957 ft | 432 kts | 229° |
| 2026-04-27 07:00 | 28.04261 | 116.32775 | 33966 ft | 434 kts | 229° |
| 2026-04-27 07:00 | 27.99976 | 116.27962 | 33965 ft | 434 kts | 228° |
| 2026-04-27 07:01 | 27.95705 | 116.23172 | 33953 ft | 434 kts | 228° |
| 2026-04-27 07:01 | 27.91427 | 116.18378 | 33945 ft | 434 kts | 228° |
| 2026-04-27 07:02 | 27.87120 | 116.13560 | 33945 ft | 433 kts | 228° |
| 2026-04-27 07:03 | 27.78397 | 116.03815 | 33948 ft | 435 kts | 228° |
| 2026-04-27 07:03 | 27.73584 | 115.99648 | 33954 ft | 442 kts | 211° |
| 2026-04-27 07:04 | 27.67930 | 115.96904 | 33962 ft | 445 kts | 206° |
| 2026-04-27 07:04 | 27.62154 | 115.94256 | 33975 ft | 446 kts | 206° |
| 2026-04-27 07:05 | 27.56434 | 115.91668 | 33985 ft | 445 kts | 206° |
| 2026-04-27 07:05 | 27.50682 | 115.89078 | 34001 ft | 445 kts | 206° |
| 2026-04-27 07:06 | 27.44927 | 115.86494 | 33990 ft | 445 kts | 206° |
| 2026-04-27 07:06 | 27.39148 | 115.83904 | 34004 ft | 446 kts | 206° |
| 2026-04-27 07:07 | 27.33369 | 115.81319 | 34010 ft | 445 kts | 206° |
| 2026-04-27 07:07 | 27.27641 | 115.78758 | 34019 ft | 446 kts | 205° |
| 2026-04-27 07:08 | 27.21887 | 115.76189 | 34016 ft | 445 kts | 206° |
| 2026-04-27 07:08 | 27.16115 | 115.73614 | 34011 ft | 446 kts | 206° |
| 2026-04-27 07:09 | 27.10350 | 115.71045 | 34006 ft | 446 kts | 206° |
| 2026-04-27 07:09 | 27.04579 | 115.68478 | 34000 ft | 444 kts | 206° |
| 2026-04-27 07:10 | 26.98800 | 115.65908 | 34010 ft | 446 kts | 206° |
| 2026-04-27 07:10 | 26.93068 | 115.63363 | 34013 ft | 445 kts | 206° |
| 2026-04-27 07:11 | 26.87293 | 115.60802 | 34008 ft | 444 kts | 206° |
| 2026-04-27 07:11 | 26.81545 | 115.58255 | 34005 ft | 446 kts | 206° |
| 2026-04-27 07:12 | 26.75785 | 115.55705 | 34003 ft | 445 kts | 206° |
| 2026-04-27 07:12 | 26.70037 | 115.53164 | 34012 ft | 445 kts | 206° |
| 2026-04-27 07:13 | 26.64278 | 115.50621 | 34006 ft | 444 kts | 206° |
| 2026-04-27 07:13 | 26.58540 | 115.48090 | 34011 ft | 445 kts | 206° |
| 2026-04-27 07:14 | 26.52794 | 115.45557 | 34012 ft | 444 kts | 206° |
| 2026-04-27 07:14 | 26.47063 | 115.43036 | 34022 ft | 442 kts | 206° |
| 2026-04-27 07:15 | 26.41325 | 115.40511 | 34020 ft | 443 kts | 206° |
| 2026-04-27 07:15 | 26.35598 | 115.37997 | 34012 ft | 442 kts | 207° |
| 2026-04-27 07:16 | 26.29888 | 115.35490 | 34003 ft | 442 kts | 206° |
| 2026-04-27 07:16 | 26.24449 | 115.32410 | 34011 ft | 432 kts | 221° |
| 2026-04-27 07:17 | 26.19980 | 115.28025 | 33994 ft | 428 kts | 227° |
| 2026-04-27 07:17 | 26.15622 | 115.23549 | 33984 ft | 427 kts | 227° |
| 2026-04-27 07:18 | 26.11241 | 115.19015 | 33988 ft | 429 kts | 227° |
| 2026-04-27 07:18 | 26.06910 | 115.14523 | 33989 ft | 426 kts | 227° |
| 2026-04-27 07:19 | 26.02568 | 115.10018 | 33996 ft | 428 kts | 227° |
| 2026-04-27 07:19 | 25.98229 | 115.05519 | 34002 ft | 428 kts | 227° |
| 2026-04-27 07:20 | 25.93893 | 115.01028 | 34009 ft | 427 kts | 227° |
| 2026-04-27 07:20 | 25.89534 | 114.96516 | 34013 ft | 428 kts | 227° |
| 2026-04-27 07:21 | 25.85161 | 114.91996 | 34017 ft | 428 kts | 227° |
| 2026-04-27 07:21 | 25.80337 | 114.88091 | 34019 ft | 438 kts | 211° |
| 2026-04-27 07:22 | 25.74483 | 114.86008 | 34018 ft | 447 kts | 198° |
| 2026-04-27 07:22 | 25.68438 | 114.84456 | 34005 ft | 446 kts | 198° |
| 2026-04-27 07:23 | 25.62350 | 114.82925 | 33999 ft | 445 kts | 198° |
| 2026-04-27 07:23 | 25.56340 | 114.81428 | 33996 ft | 445 kts | 198° |
| 2026-04-27 07:24 | 25.50259 | 114.79919 | 33999 ft | 447 kts | 198° |
| 2026-04-27 07:24 | 25.44212 | 114.78421 | 33999 ft | 447 kts | 198° |
| 2026-04-27 07:25 | 25.38115 | 114.76913 | 33999 ft | 447 kts | 198° |
| 2026-04-27 07:25 | 25.32067 | 114.75419 | 33998 ft | 446 kts | 197° |
| 2026-04-27 07:26 | 25.25986 | 114.73919 | 33987 ft | 444 kts | 197° |
| 2026-04-27 07:26 | 25.19981 | 114.72438 | 33992 ft | 444 kts | 197° |
| 2026-04-27 07:27 | 25.13928 | 114.70947 | 33997 ft | 446 kts | 197° |
| 2026-04-27 07:27 | 25.07840 | 114.69450 | 34005 ft | 446 kts | 197° |
| 2026-04-27 07:28 | 25.01817 | 114.67969 | 34018 ft | 447 kts | 197° |
| 2026-04-27 07:28 | 24.95698 | 114.66467 | 34020 ft | 448 kts | 197° |
| 2026-04-27 07:29 | 24.89549 | 114.64957 | 33036 ft | 461 kts | 197° |
| 2026-04-27 07:29 | 24.86425 | 114.64191 | 32260 ft | 460 kts | 197° |
| 2026-04-27 07:29 | 24.83304 | 114.63426 | 31570 ft | 456 kts | 197° |
| 2026-04-27 07:29 | 24.80230 | 114.62672 | 30950 ft | 450 kts | 197° |
| 2026-04-27 07:30 | 24.77181 | 114.61924 | 30394 ft | 449 kts | 197° |
| 2026-04-27 07:30 | 24.74149 | 114.61177 | 29859 ft | 456 kts | 197° |
| 2026-04-27 07:30 | 24.71052 | 114.60278 | 29311 ft | 459 kts | 202° |
| 2026-04-27 07:30 | 24.68142 | 114.58869 | 28766 ft | 456 kts | 212° |
| 2026-04-27 07:31 | 24.65416 | 114.57177 | 28238 ft | 450 kts | 212° |
| 2026-04-27 07:31 | 24.62668 | 114.55475 | 27682 ft | 446 kts | 213° |
| 2026-04-27 07:31 | 24.59999 | 114.53805 | 27139 ft | 442 kts | 213° |
| 2026-04-27 07:31 | 24.57360 | 114.52149 | 26609 ft | 438 kts | 213° |
| 2026-04-27 07:32 | 24.54721 | 114.50490 | 26080 ft | 434 kts | 213° |
| 2026-04-27 07:32 | 24.52119 | 114.48854 | 25561 ft | 430 kts | 213° |
| 2026-04-27 07:32 | 24.49520 | 114.47217 | 25047 ft | 427 kts | 213° |
| 2026-04-27 07:32 | 24.46958 | 114.45603 | 24529 ft | 424 kts | 213° |
| 2026-04-27 07:33 | 24.44391 | 114.43987 | 24020 ft | 422 kts | 213° |
| 2026-04-27 07:33 | 24.41868 | 114.42398 | 23512 ft | 418 kts | 213° |
| 2026-04-27 07:33 | 24.39373 | 114.40832 | 23024 ft | 414 kts | 213° |
| 2026-04-27 07:33 | 24.36889 | 114.39273 | 22522 ft | 411 kts | 213° |
| 2026-04-27 07:34 | 24.34403 | 114.37714 | 22039 ft | 406 kts | 213° |
| 2026-04-27 07:34 | 24.31963 | 114.36183 | 21563 ft | 403 kts | 212° |
| 2026-04-27 07:34 | 24.29540 | 114.34665 | 21088 ft | 400 kts | 212° |
| 2026-04-27 07:34 | 24.27148 | 114.33167 | 20621 ft | 396 kts | 212° |
| 2026-04-27 07:35 | 24.24788 | 114.31689 | 20158 ft | 392 kts | 212° |
| 2026-04-27 07:35 | 24.22406 | 114.30197 | 19680 ft | 390 kts | 211° |
| 2026-04-27 07:35 | 24.20077 | 114.28741 | 19210 ft | 386 kts | 211° |
| 2026-04-27 07:35 | 24.17759 | 114.27291 | 18737 ft | 384 kts | 211° |
| 2026-04-27 07:36 | 24.15438 | 114.25840 | 18258 ft | 379 kts | 211° |
| 2026-04-27 07:36 | 24.13165 | 114.24421 | 17793 ft | 377 kts | 211° |
| 2026-04-27 07:36 | 24.10896 | 114.23004 | 17321 ft | 374 kts | 211° |
| 2026-04-27 07:36 | 24.08683 | 114.21610 | 16858 ft | 370 kts | 213° |
| 2026-04-27 07:37 | 24.06582 | 114.19967 | 16420 ft | 364 kts | 218° |
| 2026-04-27 07:37 | 24.04567 | 114.18330 | 16001 ft | 365 kts | 217° |
| 2026-04-27 07:37 | 24.02536 | 114.16679 | 15574 ft | 359 kts | 217° |
| 2026-04-27 07:37 | 24.00532 | 114.15053 | 15153 ft | 356 kts | 217° |
| 2026-04-27 07:38 | 23.98550 | 114.13442 | 14726 ft | 356 kts | 217° |
| 2026-04-27 07:38 | 23.96575 | 114.11837 | 14289 ft | 350 kts | 217° |
| 2026-04-27 07:38 | 23.94608 | 114.10239 | 13860 ft | 347 kts | 216° |
| 2026-04-27 07:38 | 23.92673 | 114.08667 | 13430 ft | 345 kts | 216° |
| 2026-04-27 07:39 | 23.90754 | 114.07110 | 13004 ft | 346 kts | 216° |
| 2026-04-27 07:39 | 23.88853 | 114.05566 | 12581 ft | 345 kts | 216° |
| 2026-04-27 07:39 | 23.86945 | 114.04020 | 12158 ft | 341 kts | 216° |
| 2026-04-27 07:39 | 23.85041 | 114.02475 | 11744 ft | 339 kts | 216° |
| 2026-04-27 07:40 | 23.83146 | 114.00939 | 11388 ft | 338 kts | 216° |
| 2026-04-27 07:40 | 23.81241 | 113.99395 | 11030 ft | 338 kts | 216° |
| 2026-04-27 07:40 | 23.79341 | 113.97857 | 10643 ft | 338 kts | 216° |
| 2026-04-27 07:40 | 23.77430 | 113.96309 | 10260 ft | 338 kts | 216° |
| 2026-04-27 07:41 | 23.75597 | 113.94823 | 10139 ft | 320 kts | 216° |
| 2026-04-27 07:41 | 23.73859 | 113.93417 | 10022 ft | 305 kts | 216° |
| 2026-04-27 07:41 | 23.72188 | 113.92065 | 9920 ft | 291 kts | 216° |
| 2026-04-27 07:41 | 23.70610 | 113.90788 | 9888 ft | 276 kts | 216° |
| 2026-04-27 07:42 | 23.69084 | 113.89555 | 9869 ft | 271 kts | 216° |
| 2026-04-27 07:42 | 23.67575 | 113.88335 | 9839 ft | 272 kts | 216° |
| 2026-04-27 07:42 | 23.66068 | 113.87117 | 9795 ft | 268 kts | 216° |
| 2026-04-27 07:42 | 23.64712 | 113.85679 | 9706 ft | 273 kts | 237° |
| 2026-04-27 07:43 | 23.64102 | 113.83780 | 9652 ft | 275 kts | 263° |
| 2026-04-27 07:43 | 23.64323 | 113.81675 | 9639 ft | 279 kts | 281° |
| 2026-04-27 07:43 | 23.64782 | 113.79617 | 9589 ft | 279 kts | 281° |
| 2026-04-27 07:43 | 23.65238 | 113.77560 | 9544 ft | 278 kts | 281° |
| 2026-04-27 07:44 | 23.65696 | 113.75539 | 9518 ft | 279 kts | 281° |
| 2026-04-27 07:44 | 23.66169 | 113.73474 | 9516 ft | 279 kts | 282° |
| 2026-04-27 07:44 | 23.66645 | 113.71412 | 9495 ft | 274 kts | 281° |
| 2026-04-27 07:44 | 23.67096 | 113.69473 | 9493 ft | 253 kts | 281° |
| 2026-04-27 07:45 | 23.67514 | 113.67668 | 9498 ft | 242 kts | 281° |
| 2026-04-27 07:45 | 23.67920 | 113.65913 | 9497 ft | 240 kts | 281° |
| 2026-04-27 07:45 | 23.68327 | 113.64150 | 9492 ft | 239 kts | 281° |
| 2026-04-27 07:45 | 23.68733 | 113.62395 | 9443 ft | 242 kts | 281° |
| 2026-04-27 07:46 | 23.69153 | 113.60577 | 9110 ft | 247 kts | 281° |
| 2026-04-27 07:46 | 23.69570 | 113.58778 | 8776 ft | 244 kts | 281° |
| 2026-04-27 07:46 | 23.69984 | 113.56990 | 8495 ft | 247 kts | 281° |
| 2026-04-27 07:46 | 23.70409 | 113.55148 | 8081 ft | 254 kts | 281° |
| 2026-04-27 07:47 | 23.70848 | 113.53247 | 7728 ft | 258 kts | 282° |
| 2026-04-27 07:47 | 23.71282 | 113.51375 | 7572 ft | 253 kts | 281° |
| 2026-04-27 07:47 | 23.71708 | 113.49531 | 7083 ft | 256 kts | 281° |
| 2026-04-27 07:47 | 23.72144 | 113.47646 | 6602 ft | 255 kts | 281° |
| 2026-04-27 07:48 | 23.72559 | 113.45785 | 6122 ft | 247 kts | 276° |
| 2026-04-27 07:48 | 23.72441 | 113.44042 | 5645 ft | 225 kts | 244° |
| 2026-04-27 07:48 | 23.71631 | 113.42674 | 5559 ft | 213 kts | 231° |
| 2026-04-27 07:48 | 23.70562 | 113.41541 | 5438 ft | 218 kts | 203° |
| 2026-04-27 07:49 | 23.69098 | 113.41051 | 5240 ft | 218 kts | 193° |
| 2026-04-27 07:49 | 23.67639 | 113.40639 | 4940 ft | 218 kts | 194° |
| 2026-04-27 07:49 | 23.66190 | 113.40226 | 4699 ft | 212 kts | 193° |
| 2026-04-27 07:49 | 23.64733 | 113.39818 | 4484 ft | 216 kts | 193° |
| 2026-04-27 07:50 | 23.63280 | 113.39415 | 4217 ft | 216 kts | 193° |
| 2026-04-27 07:50 | 23.61848 | 113.39020 | 4028 ft | 216 kts | 193° |
| 2026-04-27 07:50 | 23.60386 | 113.38622 | 3670 ft | 221 kts | 192° |
| 2026-04-27 07:50 | 23.58889 | 113.38215 | 3234 ft | 218 kts | 192° |
| 2026-04-27 07:51 | 23.57488 | 113.37834 | 3066 ft | 202 kts | 192° |
| 2026-04-27 07:51 | 23.56743 | 113.37633 | 2928 ft | 207 kts | 192° |
| 2026-04-27 07:51 | 23.55402 | 113.37270 | 2572 ft | 192 kts | 192° |
| 2026-04-27 07:51 | 23.54179 | 113.36938 | 2551 ft | 172 kts | 192° |
| 2026-04-27 07:52 | 23.53016 | 113.36625 | 2597 ft | 172 kts | 191° |
| 2026-04-27 07:52 | 23.51842 | 113.36311 | 2669 ft | 174 kts | 192° |
| 2026-04-27 07:52 | 23.50635 | 113.35986 | 2428 ft | 177 kts | 192° |
| 2026-04-27 07:52 | 23.49468 | 113.35672 | 2177 ft | 171 kts | 192° |
| 2026-04-27 07:53 | 23.48339 | 113.35368 | 1971 ft | 159 kts | 192° |
| 2026-04-27 07:53 | 23.47302 | 113.35088 | 1731 ft | 148 kts | 191° |
| 2026-04-27 07:53 | 23.46333 | 113.34827 | 1516 ft | 138 kts | 191° |
| 2026-04-27 07:53 | 23.45426 | 113.34585 | 1325 ft | 129 kts | 191° |
| 2026-04-27 07:54 | 23.44571 | 113.34356 | 1161 ft | 123 kts | 191° |
| 2026-04-27 07:54 | 23.43745 | 113.34135 | 1035 ft | 121 kts | 191° |
| 2026-04-27 07:54 | 23.42903 | 113.33904 | 884 ft | 126 kts | 192° |
| 2026-04-27 07:54 | 23.42063 | 113.33654 | 756 ft | 126 kts | 192° |
| 2026-04-27 07:55 | 23.41209 | 113.33423 | 560 ft | 124 kts | 189° |
| 2026-04-27 07:55 | 23.40367 | 113.33221 | 397 ft | 124 kts | 192° |
| 2026-04-27 07:55 | 23.39519 | 113.32997 | 238 ft | 125 kts | 189° |
| 2026-04-27 07:55 | 23.38676 | 113.32769 | 93 ft | 124 kts | 192° |
| 2026-04-27 07:56 | 23.37850 | 113.32557 | 55 ft | 109 kts | 193° |
| 2026-04-27 07:56 | 23.37266 | 113.32400 | 55 ft | 87 kts | 194° |
| 2026-04-27 07:56 | 23.36770 | 113.32265 | 55 ft | 46 kts | 194° |
| 2026-04-27 07:56 | 23.36601 | 113.32219 | 55 ft | 32 kts | 196° |
| 2026-04-27 07:57 | 23.36393 | 113.32080 | 55 ft | 36 kts | 220° |
| 2026-04-27 07:57 | 23.36179 | 113.31930 | 55 ft | 37 kts | 194° |
| 2026-04-27 07:57 | 23.35925 | 113.31863 | 55 ft | 36 kts | 194° |
| 2026-04-27 07:57 | 23.35694 | 113.31802 | 55 ft | 28 kts | 194° |
| 2026-04-27 07:58 | 23.35566 | 113.31766 | 55 ft | 10 kts | 194° |
| 2026-04-27 07:58 | 23.35540 | 113.31705 | 55 ft | 11 kts | 279° |
| 2026-04-27 07:58 | 23.35596 | 113.31622 | 55 ft | 18 kts | 2° |
| 2026-04-27 07:58 | 23.35724 | 113.31655 | 55 ft | 17 kts | 14° |
| 2026-04-27 07:59 | 23.35798 | 113.31577 | 55 ft | 19 kts | 283° |
| 2026-04-27 07:59 | 23.35874 | 113.31240 | 55 ft | 16 kts | 283° |
| 2026-04-27 07:59 | 23.35900 | 113.31126 | 55 ft | 17 kts | 283° |
| 2026-04-27 08:00 | 23.35932 | 113.30985 | 55 ft | 21 kts | 283° |
| 2026-04-27 08:00 | 23.35969 | 113.30811 | 55 ft | 25 kts | 282° |
| 2026-04-27 08:00 | 23.36015 | 113.30605 | 55 ft | 29 kts | 287° |
| 2026-04-27 08:00 | 23.36079 | 113.30382 | 55 ft | 32 kts | 299° |
| 2026-04-27 08:01 | 23.36280 | 113.30275 | 55 ft | 35 kts | 6° |
| 2026-04-27 08:01 | 23.36497 | 113.30331 | 55 ft | 23 kts | 13° |
| 2026-04-27 08:01 | 23.36643 | 113.30353 | 55 ft | 17 kts | 328° |
| 2026-04-27 08:01 | 23.36680 | 113.30227 | 55 ft | 19 kts | 283° |
| 2026-04-27 08:02 | 23.36720 | 113.30067 | 55 ft | 21 kts | 296° |
| 2026-04-27 08:02 | 23.36844 | 113.30064 | 55 ft | 21 kts | 15° |
| 2026-04-27 08:02 | 23.37021 | 113.30113 | 55 ft | 32 kts | 14° |
| 2026-04-27 08:02 | 23.37261 | 113.30178 | 55 ft | 37 kts | 13° |
| 2026-04-27 08:03 | 23.37521 | 113.30248 | 55 ft | 37 kts | 11° |
| 2026-04-27 08:03 | 23.37788 | 113.30291 | 55 ft | 37 kts | 15° |
| 2026-04-27 08:03 | 23.38053 | 113.30364 | 55 ft | 40 kts | 13° |
| 2026-04-27 08:03 | 23.38337 | 113.30441 | 55 ft | 43 kts | 14° |
| 2026-04-27 08:04 | 23.38639 | 113.30521 | 55 ft | 45 kts | 14° |
| 2026-04-27 08:04 | 23.38955 | 113.30608 | 55 ft | 48 kts | 14° |
| 2026-04-27 08:04 | 23.39250 | 113.30686 | 55 ft | 35 kts | 14° |
| 2026-04-27 08:04 | 23.39457 | 113.30743 | 55 ft | 31 kts | 14° |
| 2026-04-27 08:05 | 23.39680 | 113.30805 | 55 ft | 34 kts | 11° |
| 2026-04-27 08:05 | 23.39926 | 113.30868 | 55 ft | 38 kts | 14° |
| 2026-04-27 08:05 | 23.40166 | 113.30933 | 55 ft | 29 kts | 14° |
| 2026-04-27 08:05 | 23.40348 | 113.30983 | 55 ft | 21 kts | 14° |
| 2026-04-27 08:06 | 23.40469 | 113.31015 | 55 ft | 11 kts | 13° |
| 2026-04-27 08:06 | 23.40526 | 113.31025 | 55 ft | 7 kts | 343° |
| 2026-04-27 08:06 | 23.40533 | 113.31016 | 55 ft | 4 kts | 296° |
| 2026-04-27 08:06 | 23.40544 | 113.30956 | 55 ft | 9 kts | 283° |
| 2026-04-27 08:07 | 23.40554 | 113.30915 | 55 ft | 0 kts | 284° |